createdAt,value
2019-05-03T00:00:16.483Z,27.55
2019-05-03T00:05:22.059Z,24.75
2019-05-03T00:10:25.923Z,25.77
2019-05-03T00:15:32.315Z,28.62
2019-05-03T00:20:36.348Z,29.10
2019-05-03T00:25:41.491Z,28.00
2019-05-03T00:30:45.435Z,23.02
2019-05-03T00:35:51.940Z,27.45
2019-05-03T00:40:55.980Z,25.70
2019-05-03T00:45:59.591Z,24.20
2019-05-03T00:51:03.128Z,26.17
2019-05-03T00:56:06.711Z,25.90
2019-05-03T01:01:11.821Z,24.27
2019-05-03T01:06:15.587Z,28.42
2019-05-03T01:11:19.183Z,24.10
2019-05-03T01:16:24.440Z,20.95
2019-05-03T01:21:27.969Z,22.00
2019-05-03T01:26:31.974Z,22.90
2019-05-03T01:31:35.678Z,20.70
2019-05-03T01:36:39.349Z,20.97
2019-05-03T01:41:42.961Z,24.43
2019-05-03T01:46:47.511Z,24.50
2019-05-03T01:51:58.399Z,22.15
2019-05-03T01:57:02.551Z,18.90
2019-05-03T02:02:24.055Z,19.50
2019-05-03T02:07:27.699Z,19.90
2019-05-03T02:12:32.189Z,19.95
2019-05-03T02:17:36.084Z,19.57
2019-05-03T02:22:39.708Z,21.07
2019-05-03T02:27:43.266Z,20.15
2019-05-03T02:32:46.965Z,22.80
2019-05-03T02:37:53.247Z,24.67
2019-05-03T02:43:10.764Z,24.12
2019-05-03T02:48:36.395Z,23.83
2019-05-03T02:53:39.912Z,25.97
2019-05-03T02:58:45.931Z,25.77
2019-05-03T03:03:49.116Z,26.15
2019-05-03T03:08:56.135Z,26.93
2019-05-03T03:14:01.637Z,23.60
2019-05-03T03:19:06.818Z,24.98
2019-05-03T03:24:17.381Z,26.37
2019-05-03T03:29:25.254Z,26.75
2019-05-03T03:34:32.272Z,29.82
2019-05-03T03:39:36.351Z,29.52
2019-05-03T03:44:40.815Z,29.27
2019-05-03T03:49:46.482Z,24.95
2019-05-03T03:54:55.271Z,24.90
2019-05-03T03:59:58.262Z,23.25
2019-05-03T04:05:01.937Z,22.80
2019-05-03T04:10:07.079Z,25.68
2019-05-03T04:15:18.721Z,21.82
2019-05-03T04:20:25.679Z,20.72
2019-05-03T04:25:29.434Z,22.87
2019-05-03T04:30:33.030Z,23.67
2019-05-03T04:35:36.855Z,24.35
2019-05-03T04:40:40.784Z,22.13
2019-05-03T04:45:45.976Z,24.70
2019-05-03T04:50:49.581Z,23.40
2019-05-03T04:55:55.773Z,23.95
2019-05-03T05:00:58.595Z,22.52
2019-05-03T05:06:02.187Z,27.00
2019-05-03T05:11:09.721Z,25.05
2019-05-03T05:16:11.271Z,28.65
2019-05-03T05:21:16.501Z,27.15
2019-05-03T05:26:21.758Z,25.60
2019-05-03T05:31:25.529Z,25.15
2019-05-03T05:36:29.513Z,24.47
2019-05-03T05:41:34.770Z,24.80
2019-05-03T05:46:43.153Z,25.90
2019-05-03T05:56:51.344Z,23.95
2019-05-03T06:01:58.994Z,25.65
2019-05-03T06:07:04.617Z,28.90
2019-05-03T06:12:10.287Z,26.45
2019-05-03T06:17:17.995Z,29.57
2019-05-03T06:22:23.226Z,23.37
2019-05-03T06:27:31.086Z,27.95
2019-05-03T06:32:36.302Z,31.05
2019-05-03T06:37:45.934Z,28.87
2019-05-03T06:42:54.431Z,26.10
2019-05-03T06:47:55.083Z,25.50
2019-05-03T06:52:59.782Z,25.55
2019-05-03T06:58:05.071Z,26.15
2019-05-03T07:03:10.743Z,26.97
2019-05-03T07:08:34.483Z,23.30
2019-05-03T07:13:38.746Z,24.05
2019-05-03T07:18:42.297Z,26.77
2019-05-03T07:23:45.916Z,23.92
2019-05-03T07:28:50.225Z,23.85
2019-05-03T07:33:55.093Z,22.77
2019-05-03T07:38:59.062Z,28.42
2019-05-03T07:44:02.638Z,27.82
2019-05-03T07:49:06.306Z,28.10
2019-05-03T07:54:09.912Z,31.62
2019-05-03T07:59:14.975Z,28.20
2019-05-03T08:04:19.004Z,27.60
2019-05-03T08:09:24.473Z,27.05
2019-05-03T08:14:27.896Z,26.00
2019-05-03T08:19:31.539Z,26.93
2019-05-03T08:24:35.237Z,25.23
2019-05-03T08:29:38.840Z,23.10
2019-05-03T08:34:45.315Z,24.23
2019-05-03T08:39:49.051Z,22.62
2019-05-03T08:44:52.629Z,23.95
2019-05-03T08:49:56.217Z,25.68
2019-05-03T08:55:00.067Z,23.90
2019-05-03T09:00:07.542Z,21.23
2019-05-03T09:05:11.878Z,21.67
2019-05-03T09:10:35.790Z,19.60
2019-05-03T09:15:41.048Z,22.95
2019-05-03T09:20:44.922Z,21.02
2019-05-03T09:25:48.886Z,17.12
2019-05-03T09:30:52.487Z,20.82
2019-05-03T09:35:56.129Z,21.40
2019-05-03T09:40:59.779Z,23.52
2019-05-03T09:46:05.118Z,23.45
2019-05-03T09:51:08.711Z,20.92
2019-05-03T09:56:12.210Z,22.87
2019-05-03T10:01:15.887Z,24.65
2019-05-03T10:06:19.513Z,24.55
2019-05-03T10:11:25.387Z,24.87
2019-05-03T10:16:29.937Z,23.32
2019-05-03T10:21:35.592Z,22.55
2019-05-03T10:26:39.233Z,22.65
2019-05-03T10:31:50.439Z,24.72
2019-05-03T10:36:54.880Z,20.92
2019-05-03T10:41:58.490Z,23.42
2019-05-03T10:47:02.146Z,20.80
2019-05-03T10:52:07.431Z,24.30
2019-05-03T10:57:12.618Z,23.92
2019-05-03T11:02:34.937Z,21.35
2019-05-03T11:07:38.079Z,22.40
2019-05-03T11:12:41.749Z,23.10
2019-05-03T11:17:45.572Z,21.73
2019-05-03T11:22:49.445Z,22.48
2019-05-03T11:27:55.195Z,23.98
2019-05-03T11:33:00.503Z,15.78
2019-05-03T11:38:08.303Z,19.87
2019-05-03T11:43:12.088Z,19.80
2019-05-03T11:48:15.750Z,17.17
2019-05-03T11:53:19.327Z,15.55
2019-05-03T11:58:22.960Z,35.25
2019-05-03T12:03:28.213Z,11.63
2019-05-03T12:08:31.830Z,10.98
2019-05-03T12:13:35.378Z,11.45
2019-05-03T12:18:49.337Z,9.53
2019-05-03T12:23:45.927Z,10.13
2019-05-03T12:28:49.473Z,8.85
2019-05-03T12:33:55.033Z,7.80
2019-05-03T12:38:58.329Z,12.00
2019-05-03T12:44:01.906Z,8.05
2019-05-03T12:49:05.562Z,11.65
2019-05-03T12:54:09.269Z,8.45
2019-05-03T12:59:16.020Z,17.67
2019-05-03T13:04:21.346Z,14.10
2019-05-03T13:09:27.421Z,11.12
2019-05-03T13:14:31.063Z,13.72
2019-05-03T13:19:35.014Z,12.47
2019-05-03T13:24:39.203Z,12.10
2019-05-03T13:29:42.757Z,11.10
2019-05-03T13:34:46.295Z,11.83
2019-05-03T13:39:49.811Z,10.30
2019-05-03T13:44:55.173Z,8.90
2019-05-03T13:49:58.568Z,10.35
2019-05-03T13:55:02.277Z,9.35
2019-05-03T14:00:07.276Z,13.00
2019-05-03T14:05:10.972Z,11.00
2019-05-03T14:10:15.063Z,10.55
2019-05-03T14:15:20.320Z,16.48
2019-05-03T14:20:28.360Z,11.03
2019-05-03T14:25:31.926Z,10.88
2019-05-03T14:30:35.648Z,10.25
2019-05-03T14:35:40.281Z,26.57
2019-05-03T14:40:44.883Z,20.68
2019-05-03T14:45:49.208Z,18.65
2019-05-03T14:50:54.898Z,9.30
2019-05-03T14:56:08.697Z,7.78
2019-05-03T15:01:15.454Z,7.25
2019-05-03T15:06:19.233Z,7.55
2019-05-03T15:11:22.920Z,6.58
2019-05-03T15:16:28.068Z,7.75
2019-05-03T15:21:31.638Z,11.18
2019-05-03T15:26:35.718Z,12.58
2019-05-03T15:31:39.803Z,9.60
2019-05-03T15:36:45.094Z,21.15
2019-05-03T15:41:48.781Z,14.63
2019-05-03T15:46:54.559Z,11.65
2019-05-03T15:51:58.921Z,15.30
2019-05-03T15:57:02.665Z,13.90
2019-05-03T16:02:06.464Z,11.65
2019-05-03T16:07:09.940Z,11.85
2019-05-03T16:12:14.539Z,9.60
2019-05-03T16:17:18.379Z,32.63
2019-05-03T16:22:22.027Z,19.10
2019-05-03T16:27:30.033Z,20.97
2019-05-03T16:32:34.703Z,17.73
2019-05-03T16:37:38.874Z,18.92
2019-05-03T16:42:44.369Z,21.85
2019-05-03T16:47:48.083Z,22.90
2019-05-03T16:52:51.742Z,19.48
2019-05-03T16:57:55.337Z,19.15
2019-05-03T17:02:59.027Z,16.48
2019-05-03T17:08:20.252Z,18.62
2019-05-03T17:13:25.712Z,20.52
2019-05-03T17:18:31.540Z,16.25
2019-05-03T17:23:35.392Z,17.50
2019-05-03T17:28:39.076Z,16.77
2019-05-03T17:33:51.448Z,22.85
2019-05-03T17:38:49.565Z,18.80
2019-05-03T17:43:54.797Z,17.00
2019-05-03T17:48:58.404Z,20.00
2019-05-03T17:54:05.206Z,20.32
2019-05-03T17:59:10.623Z,21.42
2019-05-03T18:04:15.924Z,19.17
2019-05-03T18:09:29.921Z,17.05
2019-05-03T18:14:34.463Z,17.35
2019-05-03T18:19:38.665Z,19.55
2019-05-03T18:24:42.248Z,23.90
2019-05-03T18:29:45.840Z,29.98
2019-05-03T18:34:49.474Z,41.58
2019-05-03T18:39:54.689Z,33.53
2019-05-03T18:45:12.231Z,33.42
2019-05-03T18:50:16.157Z,40.15
2019-05-03T18:55:19.716Z,38.35
2019-05-03T19:00:25.226Z,37.73
2019-05-03T19:05:30.467Z,37.70
2019-05-03T19:10:44.686Z,34.35
2019-05-03T19:15:48.705Z,34.35
2019-05-03T19:20:52.304Z,35.15
2019-05-03T19:25:55.960Z,39.95
2019-05-03T19:31:00.143Z,31.30
2019-05-03T19:36:04.478Z,29.82
2019-05-03T19:41:08.249Z,31.05
2019-05-03T19:46:11.894Z,33.45
2019-05-03T19:51:15.524Z,35.35
2019-05-03T19:56:19.612Z,42.08
2019-05-03T20:01:27.558Z,46.18
2019-05-03T20:06:35.560Z,48.92
2019-05-03T20:11:39.192Z,46.40
2019-05-03T20:16:44.869Z,43.68
2019-05-03T20:21:48.140Z,45.38
2019-05-03T20:26:51.682Z,40.85
2019-05-03T20:31:55.346Z,39.85
2019-05-03T20:36:58.874Z,37.70
2019-05-03T20:42:04.427Z,40.33
2019-05-03T20:47:21.483Z,36.65
2019-05-03T20:52:25.028Z,37.35
2019-05-03T20:57:28.622Z,39.50
2019-05-03T21:02:32.179Z,36.73
2019-05-03T21:07:35.753Z,35.08
2019-05-03T21:12:39.407Z,41.58
2019-05-03T21:17:47.394Z,40.60
2019-05-03T21:22:51.021Z,42.85
2019-05-03T21:27:55.547Z,44.03
2019-05-03T21:32:59.306Z,44.77
2019-05-03T21:38:02.917Z,43.68
2019-05-03T21:43:06.515Z,51.33
2019-05-03T21:48:11.714Z,48.80
2019-05-03T21:53:15.302Z,46.08
2019-05-03T21:58:18.873Z,52.10
2019-05-03T22:03:22.565Z,48.30
2019-05-03T22:08:26.216Z,48.35
2019-05-03T22:13:29.843Z,49.75
2019-05-03T22:18:35.211Z,49.93
2019-05-03T22:23:40.485Z,47.10
2019-05-03T22:28:44.459Z,50.88
2019-05-03T22:33:48.227Z,50.38
2019-05-03T22:38:51.805Z,47.03
2019-05-03T22:43:55.412Z,49.35
2019-05-03T22:48:59.339Z,50.17
2019-05-03T22:54:04.650Z,50.52
2019-05-03T22:59:08.111Z,51.15
2019-05-03T23:04:11.736Z,54.20
2019-05-03T23:09:15.851Z,48.17
2019-05-03T23:14:19.535Z,47.83
2019-05-03T23:19:23.162Z,47.80
2019-05-03T23:24:26.775Z,49.05
2019-05-03T23:29:30.362Z,48.75
2019-05-03T23:34:35.102Z,46.35
2019-05-03T23:39:38.992Z,50.50
2019-05-03T23:44:42.595Z,44.15
2019-05-03T23:49:46.222Z,46.40
2019-05-03T23:54:49.812Z,43.92
2019-05-03T23:59:55.001Z,46.73
